Munda, Solomon Islands
Current Conditions -  °F | °C
As of 6:00 AM on Tuesday 23 Dec 2014 (Local Time) from AGGH Reporting Station
Broken Clouds Broken Clouds  
Wind Chill: 77°   Ceiling: 30000
Heat Index: 78°   Visibility: 6mi
Dew Point: 75°   Wind: 2mph
Humidity: 94%   Direction: 140°SE
Pressure: 29.68"   Gusts: NA
Location:  8.33°S, 157.26°E
Report Text: AGGH 221900Z 14002KT 9999 FEW015 FEW016CB SCT027 BKN300 25/24 Q1005
Loading
Personal Weather Stations






























Interactive Weather Map New forecast layout! Learn more

10-Day Weather Forecast

Advertisements
Track Severe Weather on mobile